Time;durP1;ratioP1;P1;durP2;ratioP2;P2;SDS_P1;SDS_P2;PMS_P1;PMS_P2;Temp;Humidity;BMP_temperature;BMP_pressure;BME280_temperature;BME280_humidity;BME280_pressure;Samples;Min_cycle;Max_cycle;Signal;HPM_P1;HPM_P2
2022/11/18 00:01:06;;;;;;;4.78;3.35;;;7.20;99.90;;;;;;5053248;28;20515;-79
2022/11/18 00:03:31;;;;;;;7.45;2.88;;;7.20;99.90;;;;;;5036116;28;20037;-79
2022/11/18 00:05:57;;;;;;;4.15;2.80;;;7.20;99.90;;;;;;5046679;28;20116;-79
2022/11/18 00:08:24;;;;;;;3.55;2.70;;;7.20;99.90;;;;;;5038162;28;20100;-79
2022/11/18 00:10:51;;;;;;;6.68;4.03;;;7.20;99.90;;;;;;5044156;28;20057;-80
2022/11/18 00:16:03;;;;;;;8.27;4.50;;;7.10;99.90;;;;;;5040250;28;20057;-78
2022/11/18 00:18:29;;;;;;;8.40;4.53;;;7.10;99.90;;;;;;5040172;28;20116;-79
2022/11/18 00:20:59;;;;;;;9.82;4.57;;;7.00;99.90;;;;;;5039228;28;20145;-82
2022/11/18 00:23:24;;;;;;;8.68;4.93;;;7.10;99.90;;;;;;5040744;28;20483;-80
2022/11/18 00:25:50;;;;;;;17.30;5.20;;;7.00;99.90;;;;;;5040589;28;20103;-78
2022/11/18 00:28:16;;;;;;;8.45;4.45;;;7.00;99.90;;;;;;5039254;28;20487;-79
2022/11/18 00:30:41;;;;;;;8.20;4.72;;;7.00;99.90;;;;;;5038700;28;20040;-80
2022/11/18 00:33:07;;;;;;;4.63;3.53;;;7.00;99.90;;;;;;5037926;28;20045;-79
2022/11/18 00:35:32;;;;;;;6.35;4.43;;;7.00;99.90;;;;;;5024061;28;20041;-78
2022/11/18 00:37:58;;;;;;;7.72;5.32;;;7.00;99.90;;;;;;5023575;28;20092;-78
2022/11/18 00:40:24;;;;;;;12.13;4.88;;;7.10;99.90;;;;;;5026381;28;20068;-78
2022/11/18 00:42:50;;;;;;;8.88;6.05;;;7.10;99.90;;;;;;5019957;28;20563;-79
2022/11/18 00:45:21;;;;;;;11.27;7.03;;;7.20;99.90;;;;;;5036285;28;20128;-79
2022/11/18 00:47:47;;;;;;;15.80;6.65;;;7.20;99.90;;;;;;5034960;28;20052;-79
2022/11/18 00:50:13;;;;;;;8.73;5.68;;;7.20;99.90;;;;;;5041484;28;20037;-80
2022/11/18 00:52:38;;;;;;;12.45;6.68;;;7.20;99.90;;;;;;5048839;28;20056;-77
2022/11/18 00:55:05;;;;;;;15.75;6.85;;;7.30;99.90;;;;;;5039053;28;20075;-81
2022/11/18 00:57:30;;;;;;;14.13;5.72;;;7.30;99.90;;;;;;5046663;28;20484;-81
2022/11/18 00:59:56;;;;;;;11.00;6.70;;;7.30;99.90;;;;;;5048507;28;20120;-79
2022/11/18 01:02:22;;;;;;;13.10;6.18;;;7.30;99.90;;;;;;5043801;28;20045;-79
2022/11/18 01:04:48;;;;;;;8.35;5.22;;;7.30;99.90;;;;;;5037971;28;20045;-79
2022/11/18 01:07:13;;;;;;;13.43;6.63;;;7.40;99.90;;;;;;5036800;28;20259;-79
2022/11/18 01:09:39;;;;;;;14.50;7.28;;;7.40;99.90;;;;;;5026892;28;20049;-81
2022/11/18 01:14:49;;;;;;;9.05;5.68;;;7.40;99.90;;;;;;5038991;28;20099;-79
2022/11/18 01:17:15;;;;;;;13.05;6.57;;;7.40;99.90;;;;;;5040665;28;20053;-79
2022/11/18 01:19:40;;;;;;;15.70;5.90;;;7.40;99.90;;;;;;5038758;28;20037;-79
2022/11/18 01:22:06;;;;;;;13.30;6.53;;;7.40;99.90;;;;;;5038764;28;20053;-81
2022/11/18 01:24:32;;;;;;;11.52;6.38;;;7.40;99.90;;;;;;5034398;28;20523;-79
2022/11/18 01:26:59;;;;;;;15.50;6.72;;;7.40;99.90;;;;;;5039823;28;20080;-79
2022/11/18 01:29:25;;;;;;;12.75;6.15;;;7.40;99.90;;;;;;5044255;28;20047;-79
2022/11/18 01:31:51;;;;;;;12.25;6.18;;;7.40;99.90;;;;;;5035218;28;20049;-81
2022/11/18 01:34:16;;;;;;;13.70;6.70;;;7.40;99.90;;;;;;5036527;28;20042;-79
2022/11/18 01:36:43;;;;;;;13.63;6.78;;;7.50;99.90;;;;;;5025139;28;20120;-79
2022/11/18 01:39:09;;;;;;;10.02;5.22;;;7.40;99.90;;;;;;5039311;28;20396;-79
2022/11/18 01:41:34;;;;;;;8.13;4.75;;;7.50;99.90;;;;;;5038171;28;20056;-78
2022/11/18 01:44:25;;;;;;;12.15;5.75;;;7.50;99.90;;;;;;5042889;28;20049;-79
2022/11/18 01:46:50;;;;;;;13.52;5.85;;;7.50;99.90;;;;;;5040299;28;20045;-79
2022/11/18 01:49:16;;;;;;;12.57;7.05;;;7.50;99.90;;;;;;5043747;28;20365;-79
2022/11/18 01:51:54;;;;;;;11.38;6.32;;;7.50;99.90;;;;;;5045201;28;20501;-81
2022/11/18 01:54:32;;;;;;;13.40;5.88;;;7.50;99.90;;;;;;5040567;28;20148;-79
2022/11/18 01:57:02;;;;;;;13.48;5.82;;;7.50;99.90;;;;;;5038960;28;20049;-79
2022/11/18 01:59:32;;;;;;;15.48;7.43;;;7.50;99.90;;;;;;5024801;28;20473;-79
2022/11/18 02:02:00;;;;;;;13.52;6.25;;;7.50;99.90;;;;;;5042426;28;20448;-78
2022/11/18 02:04:26;;;;;;;13.18;5.90;;;7.50;99.90;;;;;;5051600;28;20045;-80
2022/11/18 02:06:54;;;;;;;27.45;6.90;;;7.50;99.90;;;;;;5041228;28;20049;-78
2022/11/18 02:09:20;;;;;;;15.00;7.57;;;7.50;99.90;;;;;;5021417;28;20053;-79
2022/11/18 02:11:49;;;;;;;17.23;7.88;;;7.50;99.90;;;;;;5045742;28;20064;-82
2022/11/18 02:14:18;;;;;;;18.92;7.90;;;7.50;99.90;;;;;;5027270;28;20033;-79
2022/11/18 02:16:56;;;;;;;19.58;7.85;;;7.50;99.90;;;;;;5048958;28;20044;-78
2022/11/18 02:19:44;;;;;;;13.75;6.43;;;7.50;99.90;;;;;;5043046;28;20458;-79
2022/11/18 02:22:31;;;;;;;19.83;7.78;;;7.50;99.90;;;;;;5040969;28;20044;-78
2022/11/18 02:25:25;;;;;;;18.98;8.75;;;7.50;99.90;;;;;;5041982;28;20049;-81
2022/11/18 02:28:12;;;;;;;14.40;8.10;;;7.50;99.90;;;;;;5023996;28;20111;-79
2022/11/18 02:31:04;;;;;;;13.85;6.57;;;7.50;99.90;;;;;;5037906;28;20503;-80
2022/11/18 02:33:48;;;;;;;;;;;7.50;99.90;;;;;;5037666;28;20045;-78
2022/11/18 02:36:31;;;;;;;15.88;8.77;;;7.50;99.90;;;;;;5037129;28;20021;-82
2022/11/18 02:39:03;;;;;;;16.17;7.50;;;7.50;99.90;;;;;;5042167;28;20120;-80
2022/11/18 02:41:32;;;;;;;16.15;7.82;;;7.50;99.90;;;;;;5038904;28;20153;-79
2022/11/18 02:44:06;;;;;;;13.73;7.45;;;7.50;99.90;;;;;;5036782;28;20064;-79
2022/11/18 02:46:37;;;;;;;18.63;8.15;;;7.50;99.90;;;;;;5039151;28;20045;-78
2022/11/18 02:49:11;;;;;;;16.48;7.40;;;7.50;99.90;;;;;;5037996;28;20034;-78
2022/11/18 02:51:38;;;;;;;16.55;8.90;;;7.50;99.90;;;;;;5026274;28;20060;-80
2022/11/18 02:54:06;;;;;;;17.63;7.70;;;7.50;99.90;;;;;;5041289;28;20551;-79
2022/11/18 02:56:34;;;;;;;18.90;7.15;;;7.50;99.90;;;;;;5039351;28;20048;-78
2022/11/18 02:58:59;;;;;;;15.23;7.18;;;7.40;99.90;;;;;;5041967;28;20089;-78
2022/11/18 03:01:28;;;;;;;14.77;7.20;;;7.50;99.90;;;;;;5035544;28;20107;-83
2022/11/18 03:03:55;;;;;;;17.27;8.98;;;7.50;99.90;;;;;;5038406;28;20080;-78
2022/11/18 03:06:42;;;;;;;18.88;9.45;;;7.50;99.90;;;;;;5042706;28;20049;-78
2022/11/18 03:09:20;;;;;;;15.77;7.72;;;7.50;99.90;;;;;;5041403;28;20064;-78
2022/11/18 03:12:31;;;;;;;18.40;6.85;;;7.50;99.90;;;;;;5042182;28;20046;-79
2022/11/18 03:15:15;;;;;;;12.52;6.97;;;7.50;99.90;;;;;;5035842;28;20045;-81
2022/11/18 03:18:05;;;;;;;18.35;8.13;;;7.50;99.90;;;;;;5044017;28;20138;-78
2022/11/18 03:20:36;;;;;;;10.88;6.47;;;7.50;99.90;;;;;;5044244;28;20049;-78
2022/11/18 03:23:05;;;;;;;13.88;6.57;;;7.50;99.90;;;;;;5037554;28;20049;-83
2022/11/18 03:25:47;;;;;;;14.68;7.80;;;7.50;99.90;;;;;;5044156;28;20135;-78
2022/11/18 03:28:26;;;;;;;15.15;8.23;;;7.50;99.90;;;;;;5043420;28;20049;-79
2022/11/18 03:31:19;;;;;;;18.90;7.95;;;7.50;99.90;;;;;;5038606;28;20044;-78
2022/11/18 03:33:55;;;;;;;12.10;5.82;;;7.50;99.90;;;;;;5043019;28;20049;-78
2022/11/18 03:36:23;;;;;;;15.88;7.60;;;7.50;99.90;;;;;;5043486;28;20068;-80
2022/11/18 03:38:56;;;;;;;13.55;7.13;;;7.50;99.90;;;;;;5037427;28;20404;-79
2022/11/18 03:41:24;;;;;;;12.57;6.53;;;7.50;99.90;;;;;;5042220;28;20049;-78
2022/11/18 03:44:03;;;;;;;16.73;8.70;;;7.40;99.90;;;;;;5042648;28;20053;-78
2022/11/18 03:46:37;;;;;;;16.00;8.50;;;7.50;99.90;;;;;;5044290;28;20067;-79
2022/11/18 03:49:06;;;;;;;16.58;7.80;;;7.60;99.90;;;;;;5040879;28;20045;-78
2022/11/18 03:51:38;;;;;;;18.35;7.55;;;7.50;99.90;;;;;;5039564;28;20132;-78
2022/11/18 03:54:13;;;;;;;;;;;7.50;99.90;;;;;;5038539;28;20053;-80
2022/11/18 03:56:46;;;;;;;21.27;8.63;;;7.50;99.90;;;;;;5025255;28;19929;-79
2022/11/18 03:59:19;;;;;;;21.75;8.13;;;7.60;99.90;;;;;;5034436;28;20128;-79
2022/11/18 04:01:55;;;;;;;15.57;6.80;;;7.50;99.90;;;;;;5025068;28;20049;-78
2022/11/18 04:04:23;;;;;;;13.38;6.88;;;7.60;99.90;;;;;;5036972;28;20076;-79
2022/11/18 04:07:21;;;;;;;14.38;8.00;;;7.60;99.90;;;;;;5040321;28;20050;-78
2022/11/18 04:10:01;;;;;;;15.93;8.02;;;7.50;99.90;;;;;;5023001;28;20057;-78
2022/11/18 04:12:30;;;;;;;16.10;7.13;;;7.50;99.90;;;;;;5046517;28;20106;-78
2022/11/18 04:14:57;;;;;;;24.45;8.57;;;7.50;99.90;;;;;;5040977;28;20122;-78
2022/11/18 04:17:27;;;;;;;24.05;7.65;;;7.50;99.90;;;;;;5041292;28;20038;-80
2022/11/18 04:19:53;;;;;;;17.25;8.60;;;7.50;99.90;;;;;;5039299;28;20049;-78
2022/11/18 04:22:19;;;;;;;16.42;6.65;;;7.50;99.90;;;;;;5020429;28;20056;-78
2022/11/18 04:24:45;;;;;;;15.45;7.45;;;7.50;99.90;;;;;;5024462;28;20067;-78
2022/11/18 04:27:11;;;;;;;17.02;8.65;;;7.50;99.90;;;;;;5038501;28;20503;-79
2022/11/18 04:29:36;;;;;;;20.58;9.25;;;7.50;99.90;;;;;;5018832;28;20133;-79
2022/11/18 04:32:03;;;;;;;20.88;7.82;;;7.50;99.90;;;;;;5037607;28;20148;-79
2022/11/18 04:34:29;;;;;;;14.75;7.20;;;7.50;99.90;;;;;;5022582;28;20084;-79
2022/11/18 04:36:55;;;;;;;16.48;8.43;;;7.50;99.90;;;;;;5022432;28;20053;-79
2022/11/18 04:39:21;;;;;;;20.45;9.57;;;7.50;99.90;;;;;;5020111;28;20049;-79
2022/11/18 04:41:56;;;;;;;22.88;8.00;;;7.50;99.90;;;;;;5038054;28;21516;-78
2022/11/18 04:44:27;;;;;;;18.40;7.40;;;7.50;99.90;;;;;;5042592;28;20045;-79
2022/11/18 04:46:54;;;;;;;23.42;9.40;;;7.50;99.90;;;;;;5035699;28;20535;-78
2022/11/18 04:49:21;;;;;;;21.08;9.98;;;7.50;99.90;;;;;;5038422;28;20045;-79
2022/11/18 04:51:47;;;;;;;15.27;8.18;;;7.50;99.90;;;;;;5039546;28;20053;-78
2022/11/18 04:54:13;;;;;;;21.40;11.60;;;7.50;99.90;;;;;;5037355;28;20122;-79
2022/11/18 04:56:39;;;;;;;20.67;8.75;;;7.50;99.90;;;;;;5039444;28;20037;-79
2022/11/18 04:59:05;;;;;;;16.38;8.93;;;7.50;99.90;;;;;;5027133;28;20079;-78
2022/11/18 05:01:31;;;;;;;29.58;8.98;;;7.50;99.90;;;;;;5033190;28;20072;-79
2022/11/18 05:04:00;;;;;;;17.20;9.15;;;7.60;99.90;;;;;;5038121;28;20083;-80
2022/11/18 05:06:26;;;;;;;14.23;8.00;;;7.50;99.90;;;;;;5016869;28;20041;-79
2022/11/18 05:08:51;;;;;;;22.85;10.13;;;7.50;99.90;;;;;;5026779;28;20056;-80
2022/11/18 05:14:01;;;;;;;21.48;8.05;;;7.50;99.90;;;;;;5038967;28;20049;-79
2022/11/18 05:16:27;;;;;;;21.52;9.13;;;7.50;99.90;;;;;;5036833;28;20049;-78
2022/11/18 05:18:53;;;;;;;20.23;9.45;;;7.50;99.90;;;;;;5038664;28;20051;-79
2022/11/18 05:21:18;;;;;;;26.45;10.93;;;7.50;99.90;;;;;;5043268;28;20045;-79
2022/11/18 05:23:44;;;;;;;21.85;10.13;;;7.50;99.90;;;;;;5026691;28;20065;-79
2022/11/18 05:26:10;;;;;;;21.63;9.48;;;7.50;99.90;;;;;;5036532;28;20062;-79
2022/11/18 05:28:37;;;;;;;13.68;6.38;;;7.50;99.90;;;;;;5038298;28;20072;-79
2022/11/18 05:31:12;;;;;;;16.67;8.52;;;7.50;99.90;;;;;;5037563;28;20116;-79
2022/11/18 05:33:38;;;;;;;19.92;7.90;;;7.50;99.90;;;;;;5040572;28;20053;-81
2022/11/18 05:36:06;;;;;;;15.15;6.60;;;7.50;99.90;;;;;;5039327;28;20426;-79
2022/11/18 05:38:32;;;;;;;18.17;7.72;;;7.40;99.90;;;;;;5036056;28;20049;-80
2022/11/18 05:40:58;;;;;;;15.18;7.97;;;7.50;99.90;;;;;;5020717;28;20374;-79
2022/11/18 05:43:24;;;;;;;15.98;6.93;;;7.50;99.90;;;;;;5038037;28;20056;-82
2022/11/18 05:45:50;;;;;;;17.02;8.60;;;7.50;99.90;;;;;;5037742;28;20065;-78
2022/11/18 05:48:17;;;;;;;15.07;7.20;;;7.40;99.90;;;;;;5033159;28;20457;-79
2022/11/18 05:50:46;;;;;;;14.18;6.75;;;7.40;99.90;;;;;;5041328;28;20095;-80
2022/11/18 05:53:13;;;;;;;17.92;8.15;;;7.40;99.90;;;;;;5034826;28;20346;-80
2022/11/18 05:55:59;;;;;;;17.95;7.93;;;7.40;99.90;;;;;;5035617;28;20560;-78
2022/11/18 05:58:24;;;;;;;18.55;7.70;;;7.40;99.90;;;;;;5036669;28;20057;-79
2022/11/18 06:00:53;;;;;;;14.18;7.13;;;7.40;99.90;;;;;;5038698;28;20067;-79
2022/11/18 06:03:26;;;;;;;16.98;7.10;;;7.40;99.90;;;;;;5039944;28;20048;-78
2022/11/18 06:05:54;;;;;;;16.80;7.95;;;7.40;99.90;;;;;;5036804;28;20103;-79
2022/11/18 06:08:22;;;;;;;15.13;6.63;;;7.40;99.90;;;;;;5038288;28;20116;-78
2022/11/18 06:10:49;;;;;;;15.07;7.30;;;7.40;99.90;;;;;;5039322;28;20049;-79
2022/11/18 06:13:22;;;;;;;13.10;6.82;;;7.40;99.90;;;;;;5033781;28;20034;-81
2022/11/18 06:15:48;;;;;;;16.27;7.88;;;7.40;99.90;;;;;;5038895;28;20045;-78
2022/11/18 06:18:17;;;;;;;12.60;7.63;;;7.40;99.90;;;;;;5035331;28;20045;-78
2022/11/18 06:20:42;;;;;;;16.42;6.32;;;7.40;99.90;;;;;;5045925;28;20073;-78
2022/11/18 06:23:08;;;;;;;17.58;8.43;;;7.40;99.90;;;;;;5042517;28;20076;-78
2022/11/18 06:25:37;;;;;;;17.88;9.10;;;7.40;99.90;;;;;;5037044;28;20045;-78
2022/11/18 06:28:03;;;;;;;16.52;7.50;;;7.40;99.90;;;;;;5030691;28;20053;-78
2022/11/18 06:30:29;;;;;;;15.57;6.70;;;7.40;99.90;;;;;;5039319;28;20052;-78
2022/11/18 06:32:54;;;;;;;14.40;6.28;;;7.40;99.90;;;;;;5047175;28;20045;-78
2022/11/18 06:35:20;;;;;;;17.55;6.93;;;7.30;99.90;;;;;;5041806;28;20052;-79
2022/11/18 06:37:46;;;;;;;15.30;6.32;;;7.30;99.90;;;;;;5036798;28;20043;-80
2022/11/18 06:40:12;;;;;;;18.58;7.05;;;7.40;99.90;;;;;;5035817;28;20041;-78
2022/11/18 06:45:22;;;;;;;10.13;5.25;;;7.30;99.90;;;;;;5036985;28;20053;-79
2022/11/18 06:47:47;;;;;;;11.77;5.90;;;7.30;99.90;;;;;;5037909;28;20045;-81
2022/11/18 06:50:13;;;;;;;11.18;6.05;;;7.30;99.90;;;;;;5024511;28;20053;-82
2022/11/18 06:52:39;;;;;;;10.60;6.07;;;7.30;99.90;;;;;;5050063;28;20045;-79
2022/11/18 06:55:07;;;;;;;15.77;6.78;;;7.30;99.90;;;;;;5024401;28;20045;-82
2022/11/18 06:57:33;;;;;;;11.52;5.78;;;7.30;99.90;;;;;;5024635;28;20135;-81
2022/11/18 06:59:59;;;;;;;13.88;5.25;;;7.30;99.90;;;;;;5041712;28;20056;-80
2022/11/18 07:02:25;;;;;;;12.05;6.03;;;7.30;99.90;;;;;;5051909;28;20052;-80
2022/11/18 07:04:50;;;;;;;11.07;6.30;;;7.30;99.90;;;;;;5047614;28;20128;-79
2022/11/18 07:07:16;;;;;;;15.10;6.75;;;7.30;99.90;;;;;;5037854;28;20056;-79
2022/11/18 07:09:42;;;;;;;13.02;6.53;;;7.30;99.90;;;;;;5026297;28;20048;-80
2022/11/18 07:12:08;;;;;;;21.98;4.43;;;7.30;99.90;;;;;;5035461;28;20125;-79
2022/11/18 07:14:33;;;;;;;13.57;5.05;;;7.30;99.90;;;;;;5041358;28;20044;-79
2022/11/18 07:16:59;;;;;;;19.60;7.32;;;7.30;99.90;;;;;;5052203;28;20127;-79
2022/11/18 07:19:25;;;;;;;16.27;7.20;;;7.30;99.90;;;;;;5052253;28;20488;-79
2022/11/18 07:21:50;;;;;;;11.25;5.35;;;7.30;99.90;;;;;;5035701;28;20459;-79
2022/11/18 07:24:16;;;;;;;13.80;6.63;;;7.30;99.90;;;;;;5051387;28;20103;-79
2022/11/18 07:26:42;;;;;;;7.68;4.65;;;7.30;99.90;;;;;;5047730;28;20043;-78
2022/11/18 07:29:09;;;;;;;9.65;5.68;;;7.20;99.90;;;;;;5032714;28;20058;-79
2022/11/18 07:31:37;;;;;;;12.98;6.45;;;7.20;99.90;;;;;;5050887;28;20084;-79
2022/11/18 07:34:07;;;;;;;10.68;5.07;;;7.20;99.90;;;;;;5041443;28;20052;-79
2022/11/18 07:36:39;;;;;;;13.52;5.18;;;7.20;99.90;;;;;;5051357;28;20514;-79
2022/11/18 07:39:12;;;;;;;10.98;6.03;;;7.20;99.90;;;;;;5007174;28;20049;-79
2022/11/18 07:41:40;;;;;;;7.70;4.25;;;7.20;99.90;;;;;;5050936;28;20037;-79
2022/11/18 07:44:12;;;;;;;10.80;6.35;;;7.20;99.90;;;;;;5033995;28;20136;-79
2022/11/18 07:46:45;;;;;;;11.00;4.22;;;7.20;99.90;;;;;;5032600;28;20049;-79
2022/11/18 07:49:13;;;;;;;11.38;5.32;;;7.20;99.90;;;;;;5041560;28;20049;-79
2022/11/18 07:52:04;;;;;;;10.52;4.45;;;7.20;99.90;;;;;;5020282;28;20049;-81
2022/11/18 07:54:33;;;;;;;9.98;5.10;;;7.20;99.90;;;;;;5034636;28;20049;-79
2022/11/18 07:57:18;;;;;;;7.07;3.40;;;7.20;99.90;;;;;;5043909;28;20053;-87
2022/11/18 07:59:44;;;;;;;8.52;3.97;;;7.20;99.90;;;;;;5050263;28;20056;-79
2022/11/18 08:02:13;;;;;;;9.27;4.30;;;7.20;99.90;;;;;;5041449;28;20099;-80
2022/11/18 08:04:38;;;;;;;8.98;5.30;;;7.30;99.90;;;;;;5033472;28;20563;-80
2022/11/18 08:07:04;;;;;;;11.98;5.40;;;7.20;99.90;;;;;;5033723;28;20136;-80
2022/11/18 08:09:29;;;;;;;10.70;4.25;;;7.20;99.90;;;;;;5046074;28;20052;-80
2022/11/18 08:11:55;;;;;;;6.88;4.15;;;7.20;99.90;;;;;;5052416;28;20076;-83
2022/11/18 08:14:23;;;;;;;9.63;4.00;;;7.20;99.90;;;;;;5035335;28;20048;-81
2022/11/18 08:16:49;;;;;;;7.57;4.18;;;7.20;99.90;;;;;;5035305;28;20064;-81
2022/11/18 08:19:15;;;;;;;7.38;3.20;;;7.20;99.90;;;;;;5047757;28;20072;-84
2022/11/18 08:21:40;;;;;;;13.98;3.63;;;7.20;99.90;;;;;;5028345;28;20057;-81
2022/11/18 08:24:09;;;;;;;8.88;4.45;;;7.20;99.90;;;;;;5036501;28;20056;-81
2022/11/18 08:26:35;;;;;;;6.53;3.75;;;7.20;99.90;;;;;;5032991;28;20045;-80
2022/11/18 08:29:01;;;;;;;10.18;4.43;;;7.20;99.90;;;;;;5041604;28;20155;-81
2022/11/18 08:31:29;;;;;;;5.60;3.10;;;7.20;99.90;;;;;;5043932;28;20041;-80
2022/11/18 08:34:03;;;;;;;12.73;4.47;;;7.20;99.90;;;;;;5043389;28;20508;-80
2022/11/18 08:36:32;;;;;;;8.05;4.75;;;7.20;99.90;;;;;;5035006;28;20134;-82
2022/11/18 08:38:59;;;;;;;6.20;3.35;;;7.20;99.90;;;;;;5034999;28;20057;-81
2022/11/18 08:41:40;;;;;;;6.00;3.10;;;7.20;99.90;;;;;;5058016;28;20059;-80
2022/11/18 08:44:06;;;;;;;6.65;4.00;;;7.20;99.90;;;;;;5045182;28;20045;-80
2022/11/18 08:46:33;;;;;;;5.65;3.33;;;7.20;99.90;;;;;;5033596;28;20044;-80
2022/11/18 08:48:59;;;;;;;6.68;2.92;;;7.30;99.90;;;;;;5045702;28;20142;-79
2022/11/18 08:51:25;;;;;;;7.32;3.80;;;7.20;99.90;;;;;;5036760;28;20033;-79
2022/11/18 08:53:51;;;;;;;7.95;3.63;;;7.20;99.90;;;;;;5041491;28;20057;-78
2022/11/18 08:56:21;;;;;;;5.63;3.00;;;7.20;99.90;;;;;;5053400;28;20658;-79
2022/11/18 08:58:47;;;;;;;7.40;4.45;;;7.30;99.90;;;;;;5042383;28;20057;-78
2022/11/18 09:01:13;;;;;;;7.65;3.80;;;7.30;99.90;;;;;;5037546;28;20049;-79
2022/11/18 09:03:39;;;;;;;11.68;4.22;;;7.30;99.90;;;;;;5046041;28;20090;-78
2022/11/18 09:06:06;;;;;;;5.82;3.13;;;7.30;99.90;;;;;;5033667;28;20053;-78
2022/11/18 09:08:32;;;;;;;5.53;3.42;;;7.40;99.90;;;;;;5051063;28;20055;-79
2022/11/18 09:10:57;;;;;;;14.20;4.60;;;7.30;99.90;;;;;;5035058;28;20045;-79
2022/11/18 09:13:23;;;;;;;9.40;4.10;;;7.40;99.90;;;;;;5031569;28;20476;-79
2022/11/18 09:15:49;;;;;;;9.88;3.83;;;7.30;99.90;;;;;;5030020;28;20102;-79
2022/11/18 09:18:14;;;;;;;9.48;3.08;;;7.30;99.90;;;;;;5012956;28;20045;-81
2022/11/18 09:20:40;;;;;;;7.72;3.40;;;7.30;99.90;;;;;;5043194;28;20047;-81
2022/11/18 09:23:06;;;;;;;6.18;3.40;;;7.30;99.90;;;;;;5035071;28;20132;-79
2022/11/18 09:25:32;;;;;;;7.88;4.18;;;7.30;99.90;;;;;;5035505;28;20041;-79
2022/11/18 09:27:58;;;;;;;7.60;4.00;;;7.30;99.90;;;;;;5037423;28;20052;-80
2022/11/18 09:30:23;;;;;;;8.13;4.45;;;7.30;99.90;;;;;;5040874;28;20582;-80
2022/11/18 09:32:49;;;;;;;14.93;3.25;;;7.20;99.90;;;;;;5041914;28;20037;-80
2022/11/18 09:35:16;;;;;;;7.63;3.83;;;7.20;99.90;;;;;;5021401;28;20083;-85
2022/11/18 09:37:48;;;;;;;9.38;3.83;;;7.30;99.90;;;;;;5046246;28;20110;-79
2022/11/18 09:40:17;;;;;;;9.32;4.47;;;7.30;99.90;;;;;;5032161;28;20049;-81
2022/11/18 09:42:59;;;;;;;10.68;3.38;;;7.30;99.90;;;;;;5006471;28;20056;-79
2022/11/18 09:45:48;;;;;;;6.82;3.08;;;7.30;99.90;;;;;;5036919;28;20377;-80
2022/11/18 09:49:11;;;;;;;7.55;3.20;;;7.30;99.90;;;;;;5035128;28;20430;-79
2022/11/18 09:51:11;;;;;;;11.45;4.07;;;7.30;99.90;;;;;;5035575;28;20046;-79
2022/11/18 09:53:41;;;;;;;7.90;3.45;;;7.30;99.90;;;;;;5035667;28;20041;-79
2022/11/18 09:56:13;;;;;;;15.70;8.15;;;7.30;99.90;;;;;;5044661;28;20114;-82
2022/11/18 09:58:39;;;;;;;5.18;2.95;;;7.40;99.90;;;;;;5039354;28;20092;-79
2022/11/18 10:01:16;;;;;;;6.30;3.17;;;7.30;99.90;;;;;;5040537;28;20045;-79
2022/11/18 10:03:41;;;;;;;3.58;2.28;;;7.30;99.90;;;;;;5024416;28;20115;-80
2022/11/18 10:06:26;;;;;;;4.35;2.88;;;7.40;99.90;;;;;;5036259;28;20045;-80
2022/11/18 10:09:07;;;;;;;2.45;1.55;;;7.40;99.90;;;;;;5040561;28;20053;-80
2022/11/18 10:12:02;;;;;;;5.07;2.77;;;7.40;99.90;;;;;;5041657;28;20393;-80
2022/11/18 10:14:44;;;;;;;3.03;2.00;;;7.40;99.90;;;;;;5034060;28;20407;-79
2022/11/18 10:17:42;;;;;;;8.10;2.75;;;7.50;99.90;;;;;;5041497;28;20048;-80
2022/11/18 10:20:31;;;;;;;5.43;3.22;;;7.50;99.90;;;;;;5026927;28;20480;-80
2022/11/18 10:23:06;;;;;;;6.43;3.45;;;7.60;99.90;;;;;;5038640;28;20120;-81
2022/11/18 10:25:32;;;;;;;8.52;2.53;;;7.50;99.90;;;;;;5038696;28;20056;-80
2022/11/18 10:28:13;;;;;;;6.70;2.45;;;7.50;99.90;;;;;;5015346;28;20045;-80
2022/11/18 10:30:38;;;;;;;6.40;2.55;;;7.50;99.90;;;;;;5041810;28;20103;-81
2022/11/18 10:33:20;;;;;;;5.85;3.58;;;7.50;99.90;;;;;;5042963;28;20494;-80
2022/11/18 10:35:46;;;;;;;6.10;3.67;;;7.50;99.90;;;;;;5048194;28;20118;-81
2022/11/18 10:38:11;;;;;;;8.50;2.97;;;7.50;99.90;;;;;;5034727;28;20050;-80
2022/11/18 10:40:49;;;;;;;5.95;3.40;;;7.50;99.90;;;;;;5038961;28;20054;-81
2022/11/18 10:43:44;;;;;;;12.05;5.65;;;7.50;99.90;;;;;;5042897;28;20041;-83
2022/11/18 10:46:27;;;;;;;7.78;4.65;;;7.50;99.90;;;;;;5040463;28;20041;-81
2022/11/18 10:49:08;;;;;;;10.65;4.53;;;7.40;99.90;;;;;;5039610;28;20126;-83
2022/11/18 10:51:35;;;;;;;10.43;4.53;;;7.40;99.90;;;;;;5037738;28;20477;-81
2022/11/18 10:54:19;;;;;;;7.28;3.80;;;7.40;99.90;;;;;;5041894;28;20044;-81
2022/11/18 10:56:50;;;;;;;6.50;3.70;;;7.40;99.90;;;;;;5041203;28;20128;-83
2022/11/18 10:59:27;;;;;;;9.07;4.57;;;7.40;99.90;;;;;;5039098;28;20107;-82
2022/11/18 11:02:33;;;;;;;6.18;3.60;;;7.30;99.90;;;;;;5039642;28;20073;-80
2022/11/18 11:05:02;;;;;;;8.50;4.05;;;7.30;99.90;;;;;;5039046;28;20045;-81
2022/11/18 11:07:31;;;;;;;10.77;4.38;;;7.30;99.90;;;;;;5038180;28;20042;-81
2022/11/18 11:10:12;;;;;;;8.57;4.72;;;7.30;99.90;;;;;;5037505;28;20053;-84
2022/11/18 11:12:48;;;;;;;6.15;3.92;;;7.30;99.90;;;;;;5040676;28;20048;-82
2022/11/18 11:15:18;;;;;;;10.68;4.22;;;7.30;99.90;;;;;;5039328;28;20080;-82
2022/11/18 11:18:40;;;;;;;5.85;3.88;;;7.30;99.90;;;;;;5039279;28;20504;-81
2022/11/18 11:21:13;;;;;;;11.20;4.10;;;7.20;99.90;;;;;;5036374;28;20045;-79
2022/11/18 11:23:39;;;;;;;6.90;4.35;;;7.20;99.90;;;;;;5048628;28;20046;-82
2022/11/18 11:26:14;;;;;;;6.03;3.60;;;7.20;99.90;;;;;;5042715;28;20416;-82
2022/11/18 11:29:27;;;;;;;6.18;3.00;;;7.40;99.90;;;;;;5044138;28;20051;-82
2022/11/18 11:31:52;;;;;;;;;;;7.20;99.90;;;;;;5037762;28;20081;-81
2022/11/18 11:34:24;;;;;;;;;;;7.20;99.90;;;;;;5054565;28;20340;-82
2022/11/18 11:36:54;;;;;;;;;;;7.20;99.90;;;;;;5045677;28;20368;-80
2022/11/18 11:39:22;;;;;;;;;;;7.20;99.90;;;;;;5034267;28;19992;-81
2022/11/18 11:41:53;;;;;;;;;;;7.20;99.90;;;;;;5048073;28;20377;-80
2022/11/18 11:44:33;;;;;;;;;;;7.20;99.90;;;;;;5039748;28;19921;-82
2022/11/18 11:50:14;;;;;;;;;;;7.30;99.90;;;;;;5039351;28;19978;-82
2022/11/18 11:52:59;;;;;;;;;;;7.30;99.90;;;;;;5041324;28;19924;-81
2022/11/18 11:55:43;;;;;;;;;;;7.30;99.90;;;;;;5042240;28;20352;-79
2022/11/18 11:58:18;;;;;;;;;;;7.30;99.90;;;;;;5040509;28;20423;-81
2022/11/18 12:00:48;;;;;;;;;;;7.20;99.90;;;;;;5033979;28;19921;-80
2022/11/18 12:03:25;;;;;;;;;;;7.20;99.90;;;;;;5032861;28;20069;-85
2022/11/18 12:05:51;;;;;;;;;;;7.10;99.90;;;;;;5016514;28;19932;-81
2022/11/18 12:08:20;;;;;;;;;;;7.10;99.90;;;;;;5035255;28;20307;-80
2022/11/18 12:11:06;;;;;;;;;;;7.00;99.90;;;;;;5052666;28;19958;-80
2022/11/18 12:13:34;;;;;;;;;;;7.00;99.90;;;;;;5026146;28;19921;-80
2022/11/18 12:16:19;;;;;;;;;;;7.10;99.90;;;;;;5032699;28;19928;-80
2022/11/18 12:18:58;;;;;;;;;;;7.10;99.90;;;;;;5043321;28;19921;-80
2022/11/18 12:21:43;;;;;;;;;;;7.20;99.90;;;;;;5053970;28;19928;-80
2022/11/18 12:24:31;;;;;;;;;;;7.20;99.90;;;;;;5045176;28;19929;-81
2022/11/18 12:26:58;;;;;;;;;;;7.30;99.90;;;;;;5016388;28;19928;-80
2022/11/18 12:29:26;;;;;;;;;;;7.30;99.90;;;;;;5033667;28;20372;-79
2022/11/18 12:31:53;;;;;;;;;;;7.20;99.90;;;;;;5032826;28;20417;-80
2022/11/18 12:34:25;;;;;;;;;;;7.20;99.90;;;;;;5051539;28;19928;-80
2022/11/18 12:36:51;;;;;;;;;;;7.20;99.90;;;;;;5053453;28;19982;-81
2022/11/18 12:39:23;;;;;;;;;;;7.10;99.90;;;;;;5051612;28;19927;-80
2022/11/18 12:44:38;;;;;;;;;;;7.00;99.90;;;;;;5033458;28;20074;-81
2022/11/18 12:47:07;;;;;;;;;;;7.00;99.90;;;;;;5040631;28;19960;-81
2022/11/18 12:49:33;;;;;;;;;;;7.00;99.90;;;;;;5051458;28;19921;-80
2022/11/18 12:51:59;;;;;;;;;;;7.00;99.90;;;;;;5033501;28;20232;-81
2022/11/18 12:54:30;;;;;;;;;;;7.00;99.90;;;;;;5065285;28;20384;-80
2022/11/18 12:57:14;;;;;;;;;;;6.90;99.90;;;;;;5031774;28;19924;-80
2022/11/18 12:59:39;;;;;;;;;;;6.80;99.90;;;;;;5033330;28;20015;-80
2022/11/18 13:02:14;;;;;;;;;;;6.80;99.90;;;;;;5050170;28;20003;-79
2022/11/18 13:04:40;;;;;;;;;;;6.70;99.90;;;;;;5052137;28;19932;-80
2022/11/18 13:08:11;;;;;;;;;;;6.70;99.90;;;;;;5051760;28;19920;-80
2022/11/18 13:09:54;;;;;;;;;;;6.70;99.90;;;;;;5032096;28;19921;-80
2022/11/18 13:12:25;;;;;;;;;;;6.70;99.90;;;;;;5047087;28;19974;-80
2022/11/18 13:17:51;;;;;;;;;;;6.70;99.90;;;;;;5036514;28;20367;-81
2022/11/18 13:20:34;;;;;;;;;;;6.60;99.90;;;;;;5048513;28;19920;-81
2022/11/18 13:25:45;;;;;;;;;;;6.50;99.90;;;;;;5039579;28;19931;-81
2022/11/18 13:28:20;;;;;;;;;;;6.50;99.90;;;;;;5051965;28;19920;-82
2022/11/18 13:30:52;;;;;;;;;;;6.40;99.90;;;;;;5035312;28;20244;-82
2022/11/18 13:33:17;;;;;;;;;;;6.40;99.90;;;;;;5049506;28;19920;-81
2022/11/18 13:35:43;;;;;;;;;;;6.40;99.90;;;;;;5052864;28;20287;-81
2022/11/18 13:38:17;;;;;;;;;;;6.30;99.90;;;;;;5051746;28;19925;-81
2022/11/18 13:43:29;;;;;;;;;;;6.30;99.90;;;;;;5038705;28;19921;-84
2022/11/18 13:45:56;;;;;;;;;;;6.30;99.90;;;;;;5015360;28;19964;-83
2022/11/18 13:48:21;;;;;;;;;;;6.30;99.90;;;;;;5031516;28;19972;-81
2022/11/18 13:50:53;;;;;;;;;;;6.30;99.90;;;;;;5043225;28;20032;-81